createdAt,value
2018-09-18T00:01:27.732Z,52.20
2018-09-18T00:03:56.069Z,52.30
2018-09-18T00:06:24.403Z,52.40
2018-09-18T00:08:52.847Z,52.60
2018-09-18T00:11:21.169Z,52.80
2018-09-18T00:13:49.547Z,52.60
2018-09-18T00:16:17.903Z,52.60
2018-09-18T00:18:46.335Z,52.50
2018-09-18T00:21:14.795Z,53.00
2018-09-18T00:23:43.144Z,53.10
2018-09-18T00:26:11.911Z,53.10
2018-09-18T00:28:40.237Z,53.00
2018-09-18T00:31:08.603Z,53.30
2018-09-18T00:33:36.953Z,53.30
2018-09-18T00:36:05.480Z,53.40
2018-09-18T00:38:33.845Z,53.40
2018-09-18T00:41:02.189Z,53.50
2018-09-18T00:43:30.523Z,53.50
2018-09-18T00:45:58.913Z,53.50
2018-09-18T00:48:27.704Z,53.50
2018-09-18T00:50:56.082Z,53.60
2018-09-18T00:53:24.455Z,53.90
2018-09-18T00:55:52.764Z,53.80
2018-09-18T00:58:21.158Z,53.90
2018-09-18T01:00:49.511Z,54.00
2018-09-18T01:03:18.594Z,54.00
2018-09-18T01:05:46.925Z,54.20
2018-09-18T01:08:15.248Z,54.30
2018-09-18T01:10:43.602Z,54.20
2018-09-18T01:13:11.948Z,54.30
2018-09-18T01:15:40.382Z,54.50
2018-09-18T01:18:08.714Z,54.70
2018-09-18T01:20:37.654Z,54.80
2018-09-18T01:23:06.058Z,55.20
2018-09-18T01:25:34.390Z,55.20
2018-09-18T01:28:02.728Z,55.40
2018-09-18T01:30:31.952Z,55.40
2018-09-18T01:33:00.438Z,55.40
2018-09-18T01:35:28.800Z,55.10
2018-09-18T01:37:57.127Z,54.70
2018-09-18T01:40:25.480Z,54.80
2018-09-18T01:42:53.800Z,55.00
2018-09-18T01:45:22.138Z,55.10
2018-09-18T01:47:50.504Z,55.00
2018-09-18T01:50:18.822Z,54.80
2018-09-18T01:52:47.180Z,55.20
2018-09-18T01:55:15.513Z,55.60
2018-09-18T01:57:43.842Z,55.50
2018-09-18T02:00:12.236Z,55.50
2018-09-18T02:02:41.258Z,55.40
2018-09-18T02:05:09.578Z,55.50
2018-09-18T02:07:38.573Z,56.10
2018-09-18T02:10:06.890Z,56.50
2018-09-18T02:12:35.212Z,56.70
2018-09-18T02:15:03.563Z,57.50
2018-09-18T02:17:31.902Z,57.80
2018-09-18T02:20:00.228Z,58.00
2018-09-18T02:22:28.590Z,57.90
2018-09-18T02:27:31.678Z,58.10
2018-09-18T02:30:00.142Z,58.00
2018-09-18T02:32:28.533Z,58.00
2018-09-18T02:34:56.844Z,58.10
2018-09-18T02:37:25.310Z,58.40
2018-09-18T02:39:53.680Z,58.40
2018-09-18T02:42:22.672Z,58.50
2018-09-18T02:44:51.398Z,59.00
2018-09-18T02:47:19.837Z,58.40
2018-09-18T02:49:48.809Z,58.20
2018-09-18T02:52:17.188Z,58.10
2018-09-18T02:54:45.540Z,58.10
2018-09-18T02:57:20.457Z,57.90
2018-09-18T02:59:48.812Z,57.80
2018-09-18T03:02:17.144Z,57.50
2018-09-18T03:04:45.580Z,57.50
2018-09-18T03:07:13.936Z,57.50
2018-09-18T03:09:42.243Z,57.10
2018-09-18T03:12:10.634Z,56.90
2018-09-18T03:14:39.006Z,56.90
2018-09-18T03:17:07.366Z,57.70
2018-09-18T03:19:35.728Z,58.40
2018-09-18T03:22:04.072Z,58.70
2018-09-18T03:24:33.170Z,59.10
2018-09-18T03:27:01.516Z,58.20
2018-09-18T03:29:29.851Z,58.20
2018-09-18T03:31:58.642Z,58.20
2018-09-18T03:34:27.003Z,58.70
2018-09-18T03:36:55.467Z,58.00
2018-09-18T03:39:23.755Z,58.00
2018-09-18T03:41:52.208Z,58.50
2018-09-18T03:44:20.590Z,57.80
2018-09-18T03:46:48.909Z,57.80
2018-09-18T03:49:17.267Z,57.70
2018-09-18T03:51:45.600Z,58.00
2018-09-18T03:54:13.905Z,58.20
2018-09-18T03:56:42.256Z,58.30
2018-09-18T03:59:10.590Z,58.30
2018-09-18T04:01:39.619Z,58.40
2018-09-18T04:04:07.933Z,58.50
2018-09-18T04:06:36.282Z,58.20
2018-09-18T04:09:07.270Z,58.20
2018-09-18T04:11:35.586Z,58.20
2018-09-18T04:14:03.966Z,58.10
2018-09-18T04:16:32.288Z,58.10
2018-09-18T04:19:00.653Z,58.40
2018-09-18T04:21:34.351Z,59.10
2018-09-18T04:24:02.690Z,59.20
2018-09-18T04:26:31.050Z,60.00
2018-09-18T04:28:59.364Z,59.80
2018-09-18T04:31:27.928Z,59.50
2018-09-18T04:33:56.284Z,59.50
2018-09-18T04:36:31.339Z,59.50
2018-09-18T04:39:00.597Z,59.30
2018-09-18T04:41:29.056Z,59.00
2018-09-18T04:43:57.466Z,59.50
2018-09-18T04:46:32.330Z,58.60
2018-09-18T04:49:00.669Z,58.80
2018-09-18T04:51:29.777Z,59.10
2018-09-18T04:53:58.098Z,58.70
2018-09-18T04:56:26.609Z,58.80
2018-09-18T04:58:54.997Z,59.60
2018-09-18T05:01:23.432Z,58.90
2018-09-18T05:03:51.784Z,58.90
2018-09-18T05:06:20.156Z,59.10
2018-09-18T05:08:49.031Z,59.20
2018-09-18T05:11:17.507Z,59.10
2018-09-18T05:13:45.867Z,59.00
2018-09-18T05:16:14.235Z,59.10
2018-09-18T05:18:42.552Z,59.50
2018-09-18T05:21:11.005Z,59.40
2018-09-18T05:23:39.403Z,58.60
2018-09-18T05:26:08.371Z,58.10
2018-09-18T05:28:36.738Z,58.20
2018-09-18T05:31:05.419Z,57.70
2018-09-18T05:33:34.492Z,57.20
2018-09-18T05:36:02.892Z,57.00
2018-09-18T05:38:31.361Z,56.80
2018-09-18T05:40:59.717Z,56.60
2018-09-18T05:43:28.067Z,56.80
2018-09-18T05:45:56.411Z,56.80
2018-09-18T05:48:24.767Z,56.90
2018-09-18T05:50:53.237Z,57.20
2018-09-18T05:53:21.569Z,57.50
2018-09-18T05:55:49.887Z,57.40
2018-09-18T05:58:18.229Z,57.20
2018-09-18T06:00:46.653Z,57.20
2018-09-18T06:03:14.991Z,57.10
2018-09-18T06:05:43.323Z,57.30
2018-09-18T06:08:11.674Z,57.20
2018-09-18T06:10:39.997Z,57.30
2018-09-18T06:13:08.453Z,57.20
2018-09-18T06:15:36.783Z,56.90
2018-09-18T06:18:05.183Z,56.50
2018-09-18T06:20:33.515Z,56.40
2018-09-18T06:23:01.838Z,56.10
2018-09-18T06:25:30.292Z,56.00
2018-09-18T06:27:58.611Z,55.50
2018-09-18T06:30:26.994Z,55.60
2018-09-18T06:32:55.351Z,55.60
2018-09-18T06:35:23.682Z,55.70
2018-09-18T06:37:52.240Z,55.50
2018-09-18T06:40:20.578Z,55.30
2018-09-18T06:42:48.920Z,55.00
2018-09-18T06:45:17.271Z,55.50
2018-09-18T06:47:46.219Z,54.90
2018-09-18T06:50:14.578Z,54.70
2018-09-18T06:52:42.944Z,54.30
2018-09-18T06:55:11.314Z,54.00
2018-09-18T06:57:39.730Z,53.80
2018-09-18T07:00:08.095Z,53.90
2018-09-18T07:02:36.460Z,53.80
2018-09-18T07:05:04.816Z,53.00
2018-09-18T07:07:33.162Z,52.70
2018-09-18T07:10:01.530Z,52.60
2018-09-18T07:12:29.884Z,52.70
2018-09-18T07:14:58.248Z,52.70
2018-09-18T07:17:27.337Z,52.60
2018-09-18T07:19:55.714Z,52.70
2018-09-18T07:22:24.091Z,52.30
2018-09-18T07:24:52.544Z,52.20
2018-09-18T07:27:20.856Z,51.40
2018-09-18T07:29:49.191Z,51.30
2018-09-18T07:32:17.542Z,51.70
2018-09-18T07:34:45.894Z,51.40
2018-09-18T07:37:14.250Z,52.20
2018-09-18T07:39:42.618Z,51.50
2018-09-18T07:42:10.924Z,52.40
2018-09-18T07:44:39.292Z,51.30
2018-09-18T07:47:07.669Z,52.10
2018-09-18T07:49:36.005Z,53.30
2018-09-18T07:52:04.976Z,53.40
2018-09-18T07:54:33.484Z,52.00
2018-09-18T07:57:01.844Z,51.70
2018-09-18T07:59:30.212Z,51.80
2018-09-18T08:01:58.581Z,51.10
2018-09-18T08:04:26.982Z,50.20
2018-09-18T08:06:55.345Z,50.40
2018-09-18T08:09:23.789Z,50.70
2018-09-18T08:11:52.127Z,50.70
2018-09-18T08:14:20.473Z,49.40
2018-09-18T08:16:48.829Z,49.40
2018-09-18T08:19:17.199Z,49.50
2018-09-18T08:21:45.513Z,48.30
2018-09-18T08:24:13.845Z,47.40
2018-09-18T08:26:42.215Z,48.10
2018-09-18T08:29:10.574Z,48.20
2018-09-18T08:31:38.965Z,47.20
2018-09-18T08:34:07.313Z,47.10
2018-09-18T08:36:35.643Z,45.50
2018-09-18T08:39:05.017Z,45.00
2018-09-18T08:41:33.407Z,44.60
2018-09-18T08:44:01.734Z,43.70
2018-09-18T08:46:30.108Z,43.90
2018-09-18T08:48:58.921Z,43.30
2018-09-18T08:51:27.638Z,42.90
2018-09-18T08:53:56.028Z,43.00
2018-09-18T08:56:24.388Z,43.90
2018-09-18T08:58:52.782Z,43.20
2018-09-18T09:01:21.132Z,41.70
2018-09-18T09:03:49.457Z,41.50
2018-09-18T09:06:17.981Z,41.20
2018-09-18T09:08:46.460Z,41.30
2018-09-18T09:11:14.786Z,41.40
2018-09-18T09:13:43.146Z,39.90
2018-09-18T09:16:11.550Z,39.70
2018-09-18T09:18:39.890Z,40.20
2018-09-18T09:21:08.327Z,39.00
2018-09-18T09:23:36.676Z,39.30
2018-09-18T09:26:04.999Z,39.40
2018-09-18T09:28:33.348Z,38.60
2018-09-18T09:31:01.733Z,38.20
2018-09-18T09:33:30.098Z,39.50
2018-09-18T09:35:58.436Z,38.70
2018-09-18T09:38:27.650Z,38.00
2018-09-18T09:40:56.114Z,38.30
2018-09-18T09:43:24.496Z,38.10
2018-09-18T09:45:52.855Z,37.80
2018-09-18T09:48:21.207Z,38.20
2018-09-18T09:50:49.600Z,37.60
2018-09-18T09:53:18.051Z,37.00
2018-09-18T09:55:46.416Z,36.90
2018-09-18T09:58:14.815Z,37.00
2018-09-18T10:00:48.522Z,36.40
2018-09-18T10:03:16.876Z,36.20
2018-09-18T10:05:45.328Z,36.30
2018-09-18T10:08:13.675Z,36.20
2018-09-18T10:10:42.094Z,36.70
2018-09-18T10:13:10.376Z,34.90
2018-09-18T10:15:38.730Z,35.40
2018-09-18T10:18:07.111Z,35.00
2018-09-18T10:20:35.535Z,35.10
2018-09-18T10:23:03.925Z,35.20
2018-09-18T10:25:32.959Z,35.10
2018-09-18T10:28:01.321Z,35.20
2018-09-18T10:30:29.704Z,34.60
2018-09-18T10:32:58.060Z,34.00
2018-09-18T10:35:26.448Z,34.30
2018-09-18T10:37:55.417Z,34.00
2018-09-18T10:40:23.770Z,33.70
2018-09-18T10:42:52.156Z,34.10
2018-09-18T10:45:20.499Z,33.70
2018-09-18T10:47:48.822Z,33.20
2018-09-18T10:50:17.178Z,32.70
2018-09-18T10:52:46.351Z,33.20
2018-09-18T10:55:15.094Z,32.90
2018-09-18T10:57:43.472Z,33.40
2018-09-18T11:00:11.834Z,32.90
2018-09-18T11:02:40.184Z,33.20
2018-09-18T11:05:08.572Z,32.80
2018-09-18T11:07:37.071Z,33.10
2018-09-18T11:10:05.898Z,32.00
2018-09-18T11:12:34.251Z,32.40
2018-09-18T11:15:02.672Z,32.00
2018-09-18T11:17:30.968Z,31.90
2018-09-18T11:19:59.399Z,31.80
2018-09-18T11:22:27.870Z,31.50
2018-09-18T11:24:56.050Z,31.40
2018-09-18T11:27:24.414Z,31.30
2018-09-18T11:29:53.000Z,31.40
2018-09-18T11:32:21.354Z,31.10
2018-09-18T11:34:49.784Z,31.00
2018-09-18T11:37:18.132Z,31.10
2018-09-18T11:39:46.490Z,30.30
2018-09-18T11:42:14.821Z,30.40
2018-09-18T11:44:43.147Z,31.30
2018-09-18T11:47:11.992Z,31.30
2018-09-18T11:49:40.314Z,30.20
2018-09-18T11:52:09.597Z,30.00
2018-09-18T11:54:37.943Z,29.60
2018-09-18T11:57:06.351Z,30.20
2018-09-18T11:59:34.713Z,29.80
2018-09-18T12:02:03.056Z,30.00
2018-09-18T12:04:31.450Z,29.70
2018-09-18T12:07:00.000Z,29.40
2018-09-18T12:09:28.433Z,29.00
2018-09-18T12:11:56.788Z,28.80
2018-09-18T12:14:25.332Z,29.20
2018-09-18T12:16:53.814Z,29.50
2018-09-18T12:19:22.207Z,29.30
2018-09-18T12:21:51.201Z,30.00
2018-09-18T12:24:19.676Z,29.80
2018-09-18T12:26:48.084Z,29.80
2018-09-18T12:29:16.448Z,30.30
2018-09-18T12:31:45.465Z,31.30
2018-09-18T12:34:13.813Z,30.90
2018-09-18T12:36:42.163Z,31.20
2018-09-18T12:39:10.651Z,30.70
2018-09-18T12:41:39.706Z,30.00
2018-09-18T12:44:08.148Z,29.80
2018-09-18T12:46:36.473Z,30.00
2018-09-18T12:49:05.232Z,29.30
2018-09-18T12:51:33.490Z,29.30
2018-09-18T12:54:01.940Z,29.40
2018-09-18T12:56:30.327Z,29.20
2018-09-18T12:58:58.773Z,29.30
2018-09-18T13:01:27.085Z,29.00
2018-09-18T13:03:55.421Z,28.50
2018-09-18T13:06:23.850Z,29.00
2018-09-18T13:08:52.166Z,29.10
2018-09-18T13:11:20.495Z,28.80
2018-09-18T13:13:48.924Z,28.80
2018-09-18T13:16:17.275Z,28.70
2018-09-18T13:18:45.601Z,28.90
2018-09-18T13:21:14.551Z,28.60
2018-09-18T13:23:42.979Z,29.00
2018-09-18T13:26:11.307Z,28.50
2018-09-18T13:28:39.693Z,29.30
2018-09-18T13:31:08.183Z,29.80
2018-09-18T13:33:36.556Z,30.00
2018-09-18T13:36:04.901Z,30.10
2018-09-18T13:38:33.254Z,30.30
2018-09-18T13:41:01.707Z,30.00
2018-09-18T13:43:30.009Z,29.70
2018-09-18T13:45:58.393Z,29.30
2018-09-18T13:48:26.779Z,28.90
2018-09-18T13:50:55.184Z,29.10
2018-09-18T13:53:23.511Z,28.50
2018-09-18T13:55:51.875Z,28.70
2018-09-18T13:58:20.296Z,28.30
2018-09-18T14:00:48.683Z,28.40
2018-09-18T14:03:17.039Z,27.80
2018-09-18T14:05:45.453Z,28.00
2018-09-18T14:08:13.882Z,28.30
2018-09-18T14:10:42.282Z,28.00
2018-09-18T14:13:10.719Z,28.00
2018-09-18T14:15:39.101Z,27.80
2018-09-18T14:18:07.813Z,27.20
2018-09-18T14:20:36.189Z,27.70
2018-09-18T14:23:04.529Z,28.00
2018-09-18T14:25:33.424Z,27.80
2018-09-18T14:28:01.800Z,27.60
2018-09-18T14:30:30.225Z,28.20
2018-09-18T14:32:58.618Z,28.20
2018-09-18T14:35:26.991Z,28.60
2018-09-18T14:37:56.010Z,29.50
2018-09-18T14:40:24.388Z,29.50
2018-09-18T14:42:52.673Z,29.70
2018-09-18T14:45:21.083Z,29.80
2018-09-18T14:47:49.472Z,30.30
2018-09-18T14:50:17.782Z,30.40
2018-09-18T14:52:46.132Z,30.10
2018-09-18T14:55:15.230Z,30.30
2018-09-18T14:57:43.590Z,30.50
2018-09-18T15:00:12.032Z,30.50
2018-09-18T15:02:40.342Z,30.30
2018-09-18T15:05:08.719Z,30.40
2018-09-18T15:07:37.135Z,30.20
2018-09-18T15:10:05.854Z,30.60
2018-09-18T15:12:34.305Z,30.70
2018-09-18T15:15:02.648Z,30.90
2018-09-18T15:17:31.019Z,31.20
2018-09-18T15:19:59.350Z,31.10
2018-09-18T15:22:27.782Z,31.10
2018-09-18T15:24:56.179Z,31.10
2018-09-18T15:27:24.549Z,31.10
2018-09-18T15:29:52.902Z,31.10
2018-09-18T15:32:21.302Z,31.30
2018-09-18T15:34:49.768Z,31.40
2018-09-18T15:37:18.089Z,31.80
2018-09-18T15:39:47.715Z,31.40
2018-09-18T15:42:16.117Z,31.00
2018-09-18T15:44:44.472Z,31.50
2018-09-18T15:47:12.832Z,32.30
2018-09-18T15:49:41.239Z,33.00
2018-09-18T15:52:09.620Z,36.20
2018-09-18T15:54:37.974Z,35.20
2018-09-18T15:57:06.387Z,36.10
2018-09-18T15:59:35.659Z,37.20
2018-09-18T16:02:04.041Z,39.00
2018-09-18T16:04:32.374Z,45.90
2018-09-18T16:07:00.782Z,43.80
2018-09-18T16:09:29.143Z,43.10
2018-09-18T16:11:57.482Z,46.10
2018-09-18T16:14:26.019Z,46.10
2018-09-18T16:16:54.307Z,47.50
2018-09-18T16:19:22.649Z,50.70
2018-09-18T16:21:51.298Z,50.20
2018-09-18T16:24:19.681Z,52.30
2018-09-18T16:26:48.756Z,55.40
2018-09-18T16:29:17.137Z,45.90
2018-09-18T16:31:45.538Z,45.50
2018-09-18T16:34:13.996Z,47.30
2018-09-18T16:36:42.417Z,49.50
2018-09-18T16:39:10.747Z,51.50
2018-09-18T16:41:39.083Z,54.60
2018-09-18T16:44:07.481Z,58.60
2018-09-18T16:46:35.854Z,58.30
2018-09-18T16:49:04.654Z,57.70
2018-09-18T16:51:33.302Z,58.40
2018-09-18T16:54:01.951Z,61.00
2018-09-18T16:56:30.407Z,63.20
2018-09-18T16:58:58.727Z,61.70
2018-09-18T17:01:27.129Z,61.00
2018-09-18T17:03:55.489Z,62.80
2018-09-18T17:06:24.039Z,65.00
2018-09-18T17:08:53.342Z,63.70
2018-09-18T17:11:23.109Z,48.90
2018-09-18T17:13:51.461Z,44.30
2018-09-18T17:16:19.941Z,41.20
2018-09-18T17:18:54.829Z,43.50
2018-09-18T17:21:23.257Z,42.60
2018-09-18T17:23:51.746Z,47.00
2018-09-18T17:26:20.141Z,44.30
2018-09-18T17:28:49.393Z,46.20
2018-09-18T17:31:17.509Z,49.40
2018-09-18T17:33:45.912Z,50.40
2018-09-18T17:36:14.327Z,51.00
2018-09-18T17:38:42.723Z,53.00
2018-09-18T17:41:11.090Z,52.80
2018-09-18T17:43:39.529Z,54.50
2018-09-18T17:46:07.970Z,54.90
2018-09-18T17:48:36.285Z,56.50
2018-09-18T17:51:05.236Z,55.10
2018-09-18T17:53:34.384Z,55.30
2018-09-18T17:56:02.702Z,60.20
2018-09-18T17:58:31.683Z,60.10
2018-09-18T18:01:00.176Z,60.60
2018-09-18T18:03:28.612Z,58.80
2018-09-18T18:05:56.985Z,57.20
2018-09-18T18:08:25.439Z,56.60
2018-09-18T18:10:53.726Z,58.70
2018-09-18T18:13:22.108Z,60.70
2018-09-18T18:15:50.564Z,62.10
2018-09-18T18:18:18.936Z,62.90
2018-09-18T18:20:47.342Z,63.90
2018-09-18T18:23:15.677Z,64.20
2018-09-18T18:25:44.064Z,64.60
2018-09-18T18:28:12.476Z,65.50
2018-09-18T18:30:40.808Z,66.70
2018-09-18T18:33:09.176Z,66.70
2018-09-18T18:35:37.640Z,66.60
2018-09-18T18:38:06.008Z,66.90
2018-09-18T18:40:34.361Z,67.00
2018-09-18T18:43:02.724Z,67.10
2018-09-18T18:45:31.138Z,66.90
2018-09-18T18:47:59.740Z,67.20
2018-09-18T18:50:28.002Z,67.70
2018-09-18T18:52:56.400Z,69.90
2018-09-18T18:55:24.769Z,70.20
2018-09-18T18:57:53.122Z,69.80
2018-09-18T19:00:21.585Z,69.30
2018-09-18T19:02:49.953Z,67.90
2018-09-18T19:05:18.416Z,67.70
2018-09-18T19:07:47.349Z,68.40
2018-09-18T19:10:15.879Z,68.40
2018-09-18T19:12:44.279Z,68.60
2018-09-18T19:15:12.606Z,69.20
2018-09-18T19:17:40.978Z,69.90
2018-09-18T19:20:09.498Z,70.60
2018-09-18T19:22:38.116Z,70.40
2018-09-18T19:25:06.609Z,68.60
2018-09-18T19:27:34.967Z,69.90
2018-09-18T19:30:03.537Z,69.30
2018-09-18T19:32:32.017Z,69.70
2018-09-18T19:35:00.370Z,69.50
2018-09-18T19:37:29.575Z,70.30
2018-09-18T19:39:58.999Z,70.30
2018-09-18T19:42:27.360Z,70.10
2018-09-18T19:44:55.883Z,70.30
2018-09-18T19:47:24.217Z,70.20
2018-09-18T19:49:52.753Z,71.50
2018-09-18T19:52:21.267Z,71.10
2018-09-18T19:54:49.660Z,71.40
2018-09-18T19:57:18.021Z,71.20
2018-09-18T19:59:46.370Z,71.00
2018-09-18T20:02:14.732Z,70.70
2018-09-18T20:04:43.111Z,70.60
2018-09-18T20:07:11.515Z,70.20
2018-09-18T20:09:39.880Z,70.20
2018-09-18T20:12:08.203Z,70.20
2018-09-18T20:14:36.591Z,70.10
2018-09-18T20:17:05.364Z,70.10
2018-09-18T20:19:34.699Z,70.10
2018-09-18T20:22:03.041Z,70.00
2018-09-18T20:24:31.425Z,70.70
2018-09-18T20:27:00.513Z,70.80
2018-09-18T20:29:28.882Z,70.80
2018-09-18T20:31:57.324Z,70.90
2018-09-18T20:34:25.679Z,70.80
2018-09-18T20:36:54.031Z,70.90
2018-09-18T20:39:22.443Z,70.80
2018-09-18T20:41:50.918Z,69.90
2018-09-18T20:44:19.221Z,70.40
2018-09-18T20:46:47.559Z,70.50
2018-09-18T20:49:15.940Z,70.60
2018-09-18T20:51:44.318Z,70.50
2018-09-18T20:54:12.647Z,70.40
2018-09-18T20:56:40.991Z,70.30
2018-09-18T20:59:09.315Z,70.10
2018-09-18T21:01:37.661Z,70.30
2018-09-18T21:04:06.172Z,69.60
2018-09-18T21:06:34.491Z,69.60
2018-09-18T21:09:02.909Z,69.60
2018-09-18T21:11:31.230Z,69.60
2018-09-18T21:13:59.563Z,69.70
2018-09-18T21:16:27.902Z,70.00
2018-09-18T21:18:56.318Z,70.10
2018-09-18T21:21:25.273Z,70.30
2018-09-18T21:23:53.596Z,70.70
2018-09-18T21:26:21.944Z,71.20
2018-09-18T21:28:50.770Z,71.40
2018-09-18T21:31:19.100Z,71.60
2018-09-18T21:33:47.427Z,71.60
2018-09-18T21:36:15.790Z,71.70
2018-09-18T21:38:44.369Z,71.60
2018-09-18T21:41:12.805Z,71.70
2018-09-18T21:43:41.169Z,71.80
2018-09-18T21:46:09.459Z,72.00
2018-09-18T21:48:37.857Z,71.90
2018-09-18T21:51:12.817Z,71.60
2018-09-18T21:53:41.243Z,72.00
2018-09-18T21:56:09.567Z,72.10
2018-09-18T21:58:38.517Z,72.20
2018-09-18T22:01:07.298Z,72.10
2018-09-18T22:03:35.848Z,71.90
2018-09-18T22:06:04.341Z,71.60
2018-09-18T22:08:32.691Z,71.60
2018-09-18T22:11:01.031Z,71.40
2018-09-18T22:13:29.349Z,71.40
2018-09-18T22:15:57.715Z,71.60
2018-09-18T22:18:26.096Z,71.80
2018-09-18T22:20:54.422Z,71.70
2018-09-18T22:23:22.769Z,71.80
2018-09-18T22:25:51.109Z,71.80
2018-09-18T22:28:19.538Z,71.80
2018-09-18T22:30:47.896Z,71.90
2018-09-18T22:33:16.225Z,71.90
2018-09-18T22:35:44.586Z,72.10
2018-09-18T22:38:13.010Z,71.90
2018-09-18T22:40:41.381Z,72.00
2018-09-18T22:43:09.779Z,71.70
2018-09-18T22:45:38.098Z,71.70
2018-09-18T22:48:07.166Z,71.80
2018-09-18T22:50:35.610Z,71.70
2018-09-18T22:53:04.742Z,71.80
2018-09-18T22:55:33.127Z,71.80
2018-09-18T22:58:01.475Z,71.90
2018-09-18T23:00:29.828Z,72.10
2018-09-18T23:02:58.185Z,72.00
2018-09-18T23:05:26.615Z,72.00
2018-09-18T23:07:54.986Z,72.10
2018-09-18T23:10:23.297Z,72.20
2018-09-18T23:15:26.465Z,72.30
2018-09-18T23:17:55.664Z,72.60
2018-09-18T23:20:24.010Z,72.90
2018-09-18T23:22:52.324Z,72.50
2018-09-18T23:25:20.620Z,72.40
2018-09-18T23:27:48.958Z,72.30
2018-09-18T23:30:17.282Z,72.10
2018-09-18T23:32:46.243Z,71.70
2018-09-18T23:35:14.542Z,71.70
2018-09-18T23:37:42.882Z,71.60
2018-09-18T23:40:11.248Z,71.50
2018-09-18T23:42:39.596Z,71.40
2018-09-18T23:45:07.956Z,71.40
2018-09-18T23:47:36.264Z,70.50
2018-09-18T23:50:04.732Z,71.10
2018-09-18T23:52:33.085Z,71.50
2018-09-18T23:55:01.415Z,71.90
2018-09-18T23:57:29.798Z,72.30
2018-09-18T23:59:58.126Z,72.40
